sensor_id;sensor_type;location;lat;lon;timestamp;temperature;humidity
5578;DHT22;2811;51.900;10.734;2022-07-23T00:00:19;17.60;99.90
5578;DHT22;2811;51.900;10.734;2022-07-23T00:02:46;17.50;99.90
5578;DHT22;2811;51.900;10.734;2022-07-23T00:05:14;17.60;99.90
5578;DHT22;2811;51.900;10.734;2022-07-23T00:07:41;17.70;99.90
5578;DHT22;2811;51.900;10.734;2022-07-23T00:10:08;17.90;99.90
5578;DHT22;2811;51.900;10.734;2022-07-23T00:12:36;18.00;99.90
5578;DHT22;2811;51.900;10.734;2022-07-23T00:15:03;18.20;99.90
5578;DHT22;2811;51.900;10.734;2022-07-23T00:17:30;18.20;99.90
5578;DHT22;2811;51.900;10.734;2022-07-23T00:19:56;18.10;99.90
5578;DHT22;2811;51.900;10.734;2022-07-23T00:22:24;18.10;99.90
5578;DHT22;2811;51.900;10.734;2022-07-23T00:24:51;17.90;99.90
5578;DHT22;2811;51.900;10.734;2022-07-23T00:27:18;17.90;99.90
5578;DHT22;2811;51.900;10.734;2022-07-23T00:29:44;18.00;99.90
5578;DHT22;2811;51.900;10.734;2022-07-23T00:32:11;18.30;99.90
5578;DHT22;2811;51.900;10.734;2022-07-23T00:34:37;18.10;99.90
5578;DHT22;2811;51.900;10.734;2022-07-23T00:37:04;18.00;99.90
5578;DHT22;2811;51.900;10.734;2022-07-23T00:39:32;17.90;99.90
5578;DHT22;2811;51.900;10.734;2022-07-23T00:41:58;17.80;99.90
5578;DHT22;2811;51.900;10.734;2022-07-23T00:44:27;18.00;99.90
5578;DHT22;2811;51.900;10.734;2022-07-23T00:46:57;18.20;99.90
5578;DHT22;2811;51.900;10.734;2022-07-23T00:49:25;18.10;99.90
5578;DHT22;2811;51.900;10.734;2022-07-23T00:51:53;18.20;99.90
5578;DHT22;2811;51.900;10.734;2022-07-23T00:54:22;18.10;99.90
5578;DHT22;2811;51.900;10.734;2022-07-23T00:56:50;18.10;99.90
5578;DHT22;2811;51.900;10.734;2022-07-23T00:59:17;18.10;99.90
5578;DHT22;2811;51.900;10.734;2022-07-23T01:01:44;18.10;99.90
5578;DHT22;2811;51.900;10.734;2022-07-23T01:04:13;18.10;99.90
5578;DHT22;2811;51.900;10.734;2022-07-23T01:06:40;18.10;99.90
5578;DHT22;2811;51.900;10.734;2022-07-23T01:09:07;18.20;99.90
5578;DHT22;2811;51.900;10.734;2022-07-23T01:11:35;18.10;99.90
5578;DHT22;2811;51.900;10.734;2022-07-23T01:14:10;18.00;99.90
5578;DHT22;2811;51.900;10.734;2022-07-23T01:16:37;18.10;99.90
5578;DHT22;2811;51.900;10.734;2022-07-23T01:19:03;18.00;99.90
5578;DHT22;2811;51.900;10.734;2022-07-23T01:21:33;17.90;99.90
5578;DHT22;2811;51.900;10.734;2022-07-23T01:24:01;17.80;99.90
5578;DHT22;2811;51.900;10.734;2022-07-23T01:26:28;17.80;99.90
5578;DHT22;2811;51.900;10.734;2022-07-23T01:28:54;17.80;99.90
5578;DHT22;2811;51.900;10.734;2022-07-23T01:31:21;17.80;99.90
5578;DHT22;2811;51.900;10.734;2022-07-23T01:33:48;17.90;99.90
5578;DHT22;2811;51.900;10.734;2022-07-23T01:36:14;17.90;99.90
5578;DHT22;2811;51.900;10.734;2022-07-23T01:38:41;17.70;99.90
5578;DHT22;2811;51.900;10.734;2022-07-23T01:41:09;17.70;99.90
5578;DHT22;2811;51.900;10.734;2022-07-23T01:43:36;17.80;99.90
5578;DHT22;2811;51.900;10.734;2022-07-23T01:46:02;17.80;99.90
5578;DHT22;2811;51.900;10.734;2022-07-23T01:48:29;17.60;99.90
5578;DHT22;2811;51.900;10.734;2022-07-23T01:50:55;17.70;99.90
5578;DHT22;2811;51.900;10.734;2022-07-23T01:53:22;17.70;99.90
5578;DHT22;2811;51.900;10.734;2022-07-23T01:55:49;17.80;99.90
5578;DHT22;2811;51.900;10.734;2022-07-23T01:58:17;17.80;99.90
5578;DHT22;2811;51.900;10.734;2022-07-23T02:00:43;17.80;99.90
5578;DHT22;2811;51.900;10.734;2022-07-23T02:03:10;17.70;99.90
5578;DHT22;2811;51.900;10.734;2022-07-23T02:05:36;17.50;99.90
5578;DHT22;2811;51.900;10.734;2022-07-23T02:08:03;17.30;99.90
5578;DHT22;2811;51.900;10.734;2022-07-23T02:10:30;17.30;99.90
5578;DHT22;2811;51.900;10.734;2022-07-23T02:12:57;17.30;99.90
5578;DHT22;2811;51.900;10.734;2022-07-23T02:15:25;17.40;99.90
5578;DHT22;2811;51.900;10.734;2022-07-23T02:17:51;17.40;99.90
5578;DHT22;2811;51.900;10.734;2022-07-23T02:20:18;17.30;99.90
5578;DHT22;2811;51.900;10.734;2022-07-23T02:22:44;17.10;99.90
5578;DHT22;2811;51.900;10.734;2022-07-23T02:25:11;17.10;99.90
5578;DHT22;2811;51.900;10.734;2022-07-23T02:27:38;17.10;99.90
5578;DHT22;2811;51.900;10.734;2022-07-23T02:30:06;17.20;99.90
5578;DHT22;2811;51.900;10.734;2022-07-23T02:32:34;17.10;99.90
5578;DHT22;2811;51.900;10.734;2022-07-23T02:35:02;17.00;99.90
5578;DHT22;2811;51.900;10.734;2022-07-23T02:37:29;17.20;99.90
5578;DHT22;2811;51.900;10.734;2022-07-23T02:39:55;17.10;99.90
5578;DHT22;2811;51.900;10.734;2022-07-23T02:42:22;17.20;99.90
5578;DHT22;2811;51.900;10.734;2022-07-23T02:44:49;17.20;99.90
5578;DHT22;2811;51.900;10.734;2022-07-23T02:47:16;17.30;99.90
5578;DHT22;2811;51.900;10.734;2022-07-23T02:49:44;17.40;99.90
5578;DHT22;2811;51.900;10.734;2022-07-23T02:52:10;17.40;99.90
5578;DHT22;2811;51.900;10.734;2022-07-23T02:54:37;17.40;99.90
5578;DHT22;2811;51.900;10.734;2022-07-23T02:57:04;17.40;99.90
5578;DHT22;2811;51.900;10.734;2022-07-23T02:59:31;17.40;99.90
5578;DHT22;2811;51.900;10.734;2022-07-23T03:01:58;17.30;99.90
5578;DHT22;2811;51.900;10.734;2022-07-23T03:04:24;17.30;99.90
5578;DHT22;2811;51.900;10.734;2022-07-23T03:06:52;17.30;99.90
5578;DHT22;2811;51.900;10.734;2022-07-23T03:09:19;17.30;99.90
5578;DHT22;2811;51.900;10.734;2022-07-23T03:11:45;17.20;99.90
5578;DHT22;2811;51.900;10.734;2022-07-23T03:14:12;17.10;99.90
5578;DHT22;2811;51.900;10.734;2022-07-23T03:16:39;17.20;99.90
5578;DHT22;2811;51.900;10.734;2022-07-23T03:19:05;17.00;99.90
5578;DHT22;2811;51.900;10.734;2022-07-23T03:21:32;16.90;99.90
5578;DHT22;2811;51.900;10.734;2022-07-23T03:24:00;17.10;99.90
5578;DHT22;2811;51.900;10.734;2022-07-23T03:26:27;17.10;99.90
5578;DHT22;2811;51.900;10.734;2022-07-23T03:28:53;17.10;99.90
5578;DHT22;2811;51.900;10.734;2022-07-23T03:31:20;17.10;99.90
5578;DHT22;2811;51.900;10.734;2022-07-23T03:33:47;17.00;99.90
5578;DHT22;2811;51.900;10.734;2022-07-23T03:36:13;17.00;99.90
5578;DHT22;2811;51.900;10.734;2022-07-23T03:38:40;17.00;99.90
5578;DHT22;2811;51.900;10.734;2022-07-23T03:41:08;17.00;99.90
5578;DHT22;2811;51.900;10.734;2022-07-23T03:43:34;16.90;99.90
5578;DHT22;2811;51.900;10.734;2022-07-23T03:46:01;17.00;99.90
5578;DHT22;2811;51.900;10.734;2022-07-23T03:48:28;17.10;99.90
5578;DHT22;2811;51.900;10.734;2022-07-23T03:50:54;17.00;99.90
5578;DHT22;2811;51.900;10.734;2022-07-23T03:53:21;17.10;99.90
5578;DHT22;2811;51.900;10.734;2022-07-23T03:55:47;17.10;99.90
5578;DHT22;2811;51.900;10.734;2022-07-23T03:58:15;17.00;99.90
5578;DHT22;2811;51.900;10.734;2022-07-23T04:00:42;16.90;99.90
5578;DHT22;2811;51.900;10.734;2022-07-23T04:03:09;16.80;99.90
5578;DHT22;2811;51.900;10.734;2022-07-23T04:05:35;16.80;99.90
5578;DHT22;2811;51.900;10.734;2022-07-23T04:08:02;16.80;99.90
5578;DHT22;2811;51.900;10.734;2022-07-23T04:10:28;17.10;99.90
5578;DHT22;2811;51.900;10.734;2022-07-23T04:12:55;16.90;99.90
5578;DHT22;2811;51.900;10.734;2022-07-23T04:15:23;16.90;99.90
5578;DHT22;2811;51.900;10.734;2022-07-23T04:17:49;17.00;99.90
5578;DHT22;2811;51.900;10.734;2022-07-23T04:20:16;17.00;99.90
5578;DHT22;2811;51.900;10.734;2022-07-23T04:22:43;16.90;99.90
5578;DHT22;2811;51.900;10.734;2022-07-23T04:25:09;16.90;99.90
5578;DHT22;2811;51.900;10.734;2022-07-23T04:27:36;16.90;99.90
5578;DHT22;2811;51.900;10.734;2022-07-23T04:30:03;17.00;99.90
5578;DHT22;2811;51.900;10.734;2022-07-23T04:32:31;17.00;99.90
5578;DHT22;2811;51.900;10.734;2022-07-23T04:34:57;17.00;99.90
5578;DHT22;2811;51.900;10.734;2022-07-23T04:37:24;17.00;99.90
5578;DHT22;2811;51.900;10.734;2022-07-23T04:39:51;17.00;99.90
5578;DHT22;2811;51.900;10.734;2022-07-23T04:42:17;17.00;99.90
5578;DHT22;2811;51.900;10.734;2022-07-23T04:44:44;17.00;99.90
5578;DHT22;2811;51.900;10.734;2022-07-23T04:47:10;16.90;99.90
5578;DHT22;2811;51.900;10.734;2022-07-23T04:49:38;16.70;99.90
5578;DHT22;2811;51.900;10.734;2022-07-23T04:52:05;17.00;99.90
5578;DHT22;2811;51.900;10.734;2022-07-23T04:54:31;16.80;99.90
5578;DHT22;2811;51.900;10.734;2022-07-23T04:56:58;16.80;99.90
5578;DHT22;2811;51.900;10.734;2022-07-23T04:59:25;17.00;99.90
5578;DHT22;2811;51.900;10.734;2022-07-23T05:01:51;17.00;99.90
5578;DHT22;2811;51.900;10.734;2022-07-23T05:04:18;17.10;99.90
5578;DHT22;2811;51.900;10.734;2022-07-23T05:06:46;17.20;99.90
5578;DHT22;2811;51.900;10.734;2022-07-23T05:09:13;17.40;99.90
5578;DHT22;2811;51.900;10.734;2022-07-23T05:11:39;17.40;99.90
5578;DHT22;2811;51.900;10.734;2022-07-23T05:14:06;17.40;99.90
5578;DHT22;2811;51.900;10.734;2022-07-23T05:16:32;17.50;99.90
5578;DHT22;2811;51.900;10.734;2022-07-23T05:18:59;17.50;99.90
5578;DHT22;2811;51.900;10.734;2022-07-23T05:21:26;17.60;99.90
5578;DHT22;2811;51.900;10.734;2022-07-23T05:23:54;17.40;99.90
5578;DHT22;2811;51.900;10.734;2022-07-23T05:26:20;17.50;99.90
5578;DHT22;2811;51.900;10.734;2022-07-23T05:28:47;17.60;99.90
5578;DHT22;2811;51.900;10.734;2022-07-23T05:31:14;17.80;99.90
5578;DHT22;2811;51.900;10.734;2022-07-23T05:33:40;17.80;99.90
5578;DHT22;2811;51.900;10.734;2022-07-23T05:36:07;17.90;99.90
5578;DHT22;2811;51.900;10.734;2022-07-23T05:38:34;18.00;99.90
5578;DHT22;2811;51.900;10.734;2022-07-23T05:41:02;18.10;99.90
5578;DHT22;2811;51.900;10.734;2022-07-23T05:43:29;18.20;99.90
5578;DHT22;2811;51.900;10.734;2022-07-23T05:45:56;18.30;99.90
5578;DHT22;2811;51.900;10.734;2022-07-23T05:48:22;18.30;99.90
5578;DHT22;2811;51.900;10.734;2022-07-23T05:50:49;18.40;99.90
5578;DHT22;2811;51.900;10.734;2022-07-23T05:53:15;18.50;99.90
5578;DHT22;2811;51.900;10.734;2022-07-23T05:55:42;19.00;99.90
5578;DHT22;2811;51.900;10.734;2022-07-23T05:58:10;19.40;99.90
5578;DHT22;2811;51.900;10.734;2022-07-23T06:00:37;19.80;99.90
5578;DHT22;2811;51.900;10.734;2022-07-23T06:03:03;20.00;99.90
5578;DHT22;2811;51.900;10.734;2022-07-23T06:05:30;20.40;99.90
5578;DHT22;2811;51.900;10.734;2022-07-23T06:07:57;20.50;99.90
5578;DHT22;2811;51.900;10.734;2022-07-23T06:27:47;19.20;99.90
5578;DHT22;2811;51.900;10.734;2022-07-23T06:30:15;19.20;99.90
5578;DHT22;2811;51.900;10.734;2022-07-23T06:32:43;19.60;99.90
5578;DHT22;2811;51.900;10.734;2022-07-23T06:35:09;19.70;99.90
5578;DHT22;2811;51.900;10.734;2022-07-23T06:37:36;19.70;99.90
5578;DHT22;2811;51.900;10.734;2022-07-23T06:40:03;19.80;99.90
5578;DHT22;2811;51.900;10.734;2022-07-23T06:42:30;19.80;99.90
5578;DHT22;2811;51.900;10.734;2022-07-23T06:44:58;19.80;99.90
5578;DHT22;2811;51.900;10.734;2022-07-23T06:47:24;19.80;99.90
5578;DHT22;2811;51.900;10.734;2022-07-23T06:49:51;20.00;99.90
5578;DHT22;2811;51.900;10.734;2022-07-23T06:52:17;20.30;99.90
5578;DHT22;2811;51.900;10.734;2022-07-23T06:54:44;20.50;99.90
5578;DHT22;2811;51.900;10.734;2022-07-23T06:57:11;20.70;99.90
5578;DHT22;2811;51.900;10.734;2022-07-23T06:59:38;20.60;99.90
5578;DHT22;2811;51.900;10.734;2022-07-23T07:02:07;20.70;99.90
5578;DHT22;2811;51.900;10.734;2022-07-23T07:04:34;20.60;99.90
5578;DHT22;2811;51.900;10.734;2022-07-23T07:07:01;20.50;99.90
5578;DHT22;2811;51.900;10.734;2022-07-23T07:09:27;20.30;99.90
5578;DHT22;2811;51.900;10.734;2022-07-23T07:11:54;20.20;99.90
5578;DHT22;2811;51.900;10.734;2022-07-23T07:14:22;19.90;99.90
5578;DHT22;2811;51.900;10.734;2022-07-23T07:16:48;19.80;99.90
5578;DHT22;2811;51.900;10.734;2022-07-23T07:19:16;20.10;99.90
5578;DHT22;2811;51.900;10.734;2022-07-23T07:21:43;20.20;99.90
5578;DHT22;2811;51.900;10.734;2022-07-23T07:24:09;20.20;99.90
5578;DHT22;2811;51.900;10.734;2022-07-23T07:26:36;20.10;99.90
5578;DHT22;2811;51.900;10.734;2022-07-23T07:29:04;20.10;99.90
5578;DHT22;2811;51.900;10.734;2022-07-23T07:31:31;20.50;99.90
5578;DHT22;2811;51.900;10.734;2022-07-23T07:33:58;20.90;99.90
5578;DHT22;2811;51.900;10.734;2022-07-23T07:36:26;20.50;99.90
5578;DHT22;2811;51.900;10.734;2022-07-23T07:38:53;20.60;99.90
5578;DHT22;2811;51.900;10.734;2022-07-23T07:41:19;20.80;99.90
5578;DHT22;2811;51.900;10.734;2022-07-23T07:43:49;20.90;99.90
5578;DHT22;2811;51.900;10.734;2022-07-23T07:46:16;21.00;99.90
5578;DHT22;2811;51.900;10.734;2022-07-23T07:48:42;21.00;99.90
5578;DHT22;2811;51.900;10.734;2022-07-23T07:51:09;21.10;99.90
5578;DHT22;2811;51.900;10.734;2022-07-23T07:53:37;21.00;99.90
5578;DHT22;2811;51.900;10.734;2022-07-23T07:56:04;21.10;99.90
5578;DHT22;2811;51.900;10.734;2022-07-23T07:58:31;21.50;99.90
5578;DHT22;2811;51.900;10.734;2022-07-23T08:00:57;21.50;99.90
5578;DHT22;2811;51.900;10.734;2022-07-23T08:03:24;21.50;99.90
5578;DHT22;2811;51.900;10.734;2022-07-23T08:05:50;21.30;99.90
5578;DHT22;2811;51.900;10.734;2022-07-23T08:08:17;21.60;99.90
5578;DHT22;2811;51.900;10.734;2022-07-23T08:10:45;21.50;99.90
5578;DHT22;2811;51.900;10.734;2022-07-23T08:13:13;21.70;99.90
5578;DHT22;2811;51.900;10.734;2022-07-23T08:15:41;21.70;99.90
5578;DHT22;2811;51.900;10.734;2022-07-23T08:18:07;21.90;99.90
5578;DHT22;2811;51.900;10.734;2022-07-23T08:20:34;21.80;99.90
5578;DHT22;2811;51.900;10.734;2022-07-23T08:23:04;21.80;99.90
5578;DHT22;2811;51.900;10.734;2022-07-23T08:25:33;21.80;99.90
5578;DHT22;2811;51.900;10.734;2022-07-23T08:28:04;21.90;99.90
5578;DHT22;2811;51.900;10.734;2022-07-23T08:30:31;21.80;99.90
5578;DHT22;2811;51.900;10.734;2022-07-23T08:33:00;22.00;99.90
5578;DHT22;2811;51.900;10.734;2022-07-23T08:35:28;22.30;99.90
5578;DHT22;2811;51.900;10.734;2022-07-23T08:37:56;22.90;99.90
5578;DHT22;2811;51.900;10.734;2022-07-23T08:40:23;22.60;99.90
5578;DHT22;2811;51.900;10.734;2022-07-23T08:42:51;22.30;99.90
5578;DHT22;2811;51.900;10.734;2022-07-23T08:45:21;22.30;99.90
5578;DHT22;2811;51.900;10.734;2022-07-23T08:47:52;22.70;99.90
5578;DHT22;2811;51.900;10.734;2022-07-23T08:50:20;23.20;99.90
5578;DHT22;2811;51.900;10.734;2022-07-23T08:52:48;23.20;99.90
5578;DHT22;2811;51.900;10.734;2022-07-23T08:55:17;23.10;99.90
5578;DHT22;2811;51.900;10.734;2022-07-23T08:57:44;23.10;99.90
5578;DHT22;2811;51.900;10.734;2022-07-23T09:00:11;23.00;99.90
5578;DHT22;2811;51.900;10.734;2022-07-23T09:02:41;22.80;99.90
5578;DHT22;2811;51.900;10.734;2022-07-23T09:05:09;22.60;99.90
5578;DHT22;2811;51.900;10.734;2022-07-23T09:08:06;22.70;99.90
5578;DHT22;2811;51.900;10.734;2022-07-23T09:10:47;23.30;99.90
5578;DHT22;2811;51.900;10.734;2022-07-23T09:13:37;23.40;99.90
5578;DHT22;2811;51.900;10.734;2022-07-23T09:16:07;23.60;99.90
5578;DHT22;2811;51.900;10.734;2022-07-23T09:18:39;23.20;99.90
5578;DHT22;2811;51.900;10.734;2022-07-23T09:21:11;23.10;99.90
5578;DHT22;2811;51.900;10.734;2022-07-23T09:23:40;23.50;99.90
5578;DHT22;2811;51.900;10.734;2022-07-23T09:26:29;23.60;99.90
5578;DHT22;2811;51.900;10.734;2022-07-23T09:29:09;23.40;99.90
5578;DHT22;2811;51.900;10.734;2022-07-23T09:31:45;23.20;99.90
5578;DHT22;2811;51.900;10.734;2022-07-23T09:34:16;23.30;99.90
5578;DHT22;2811;51.900;10.734;2022-07-23T09:36:43;23.30;99.90
5578;DHT22;2811;51.900;10.734;2022-07-23T09:39:10;23.60;99.90
5578;DHT22;2811;51.900;10.734;2022-07-23T09:41:41;23.90;99.90
5578;DHT22;2811;51.900;10.734;2022-07-23T09:44:13;23.80;99.90
5578;DHT22;2811;51.900;10.734;2022-07-23T09:46:41;23.70;99.90
5578;DHT22;2811;51.900;10.734;2022-07-23T09:49:18;23.40;99.90
5578;DHT22;2811;51.900;10.734;2022-07-23T09:51:48;23.40;99.90
5578;DHT22;2811;51.900;10.734;2022-07-23T09:54:33;22.90;99.90
5578;DHT22;2811;51.900;10.734;2022-07-23T09:57:03;23.10;99.90
5578;DHT22;2811;51.900;10.734;2022-07-23T09:59:34;23.20;99.90
5578;DHT22;2811;51.900;10.734;2022-07-23T10:02:01;23.40;99.90
5578;DHT22;2811;51.900;10.734;2022-07-23T10:04:31;23.40;99.90
5578;DHT22;2811;51.900;10.734;2022-07-23T10:06:59;23.50;99.90
5578;DHT22;2811;51.900;10.734;2022-07-23T10:09:28;23.50;99.90
5578;DHT22;2811;51.900;10.734;2022-07-23T10:11:57;23.50;99.90
5578;DHT22;2811;51.900;10.734;2022-07-23T10:14:32;23.60;99.90
5578;DHT22;2811;51.900;10.734;2022-07-23T10:17:01;23.70;99.90
5578;DHT22;2811;51.900;10.734;2022-07-23T10:19:28;23.50;99.90
5578;DHT22;2811;51.900;10.734;2022-07-23T10:22:00;23.50;99.90
5578;DHT22;2811;51.900;10.734;2022-07-23T10:24:50;23.50;99.90
5578;DHT22;2811;51.900;10.734;2022-07-23T10:30:28;23.90;99.90
5578;DHT22;2811;51.900;10.734;2022-07-23T10:33:12;24.30;99.90
5578;DHT22;2811;51.900;10.734;2022-07-23T10:35:48;24.30;99.40
5578;DHT22;2811;51.900;10.734;2022-07-23T10:38:21;24.40;99.20
5578;DHT22;2811;51.900;10.734;2022-07-23T10:40:57;24.30;99.10
5578;DHT22;2811;51.900;10.734;2022-07-23T10:43:25;24.30;98.30
5578;DHT22;2811;51.900;10.734;2022-07-23T10:45:52;24.30;98.20
5578;DHT22;2811;51.900;10.734;2022-07-23T10:48:20;24.30;98.80
5578;DHT22;2811;51.900;10.734;2022-07-23T10:51:07;24.10;97.90
5578;DHT22;2811;51.900;10.734;2022-07-23T10:53:55;23.80;98.80
5578;DHT22;2811;51.900;10.734;2022-07-23T10:57:04;23.80;98.70
5578;DHT22;2811;51.900;10.734;2022-07-23T11:02:39;23.90;98.10
5578;DHT22;2811;51.900;10.734;2022-07-23T11:05:08;24.10;98.00
5578;DHT22;2811;51.900;10.734;2022-07-23T11:07:36;24.00;97.80
5578;DHT22;2811;51.900;10.734;2022-07-23T11:10:05;24.00;97.60
5578;DHT22;2811;51.900;10.734;2022-07-23T11:12:33;24.10;97.90
5578;DHT22;2811;51.900;10.734;2022-07-23T11:15:02;24.30;97.10
5578;DHT22;2811;51.900;10.734;2022-07-23T11:17:29;24.40;96.90
5578;DHT22;2811;51.900;10.734;2022-07-23T11:20:20;24.70;96.60
5578;DHT22;2811;51.900;10.734;2022-07-23T11:22:49;24.70;97.00
5578;DHT22;2811;51.900;10.734;2022-07-23T11:25:32;24.60;96.60
5578;DHT22;2811;51.900;10.734;2022-07-23T11:28:11;24.70;96.60
5578;DHT22;2811;51.900;10.734;2022-07-23T11:30:40;24.80;96.10
5578;DHT22;2811;51.900;10.734;2022-07-23T11:33:21;24.90;95.40
5578;DHT22;2811;51.900;10.734;2022-07-23T11:35:50;24.90;95.60
5578;DHT22;2811;51.900;10.734;2022-07-23T11:38:25;24.90;96.00
5578;DHT22;2811;51.900;10.734;2022-07-23T11:40:55;25.00;95.50
5578;DHT22;2811;51.900;10.734;2022-07-23T11:43:23;24.90;95.30
5578;DHT22;2811;51.900;10.734;2022-07-23T11:45:52;24.90;95.00
5578;DHT22;2811;51.900;10.734;2022-07-23T11:48:21;24.80;95.10
5578;DHT22;2811;51.900;10.734;2022-07-23T11:50:49;24.80;95.80
5578;DHT22;2811;51.900;10.734;2022-07-23T11:53:21;25.10;95.70
5578;DHT22;2811;51.900;10.734;2022-07-23T11:55:48;25.20;94.80
5578;DHT22;2811;51.900;10.734;2022-07-23T11:58:16;25.00;94.80
5578;DHT22;2811;51.900;10.734;2022-07-23T12:00:43;24.90;95.10
5578;DHT22;2811;51.900;10.734;2022-07-23T12:03:10;25.10;95.20
5578;DHT22;2811;51.900;10.734;2022-07-23T12:05:38;25.00;94.70
5578;DHT22;2811;51.900;10.734;2022-07-23T12:08:06;25.00;95.10
5578;DHT22;2811;51.900;10.734;2022-07-23T12:10:35;25.10;95.10
5578;DHT22;2811;51.900;10.734;2022-07-23T12:13:05;25.30;95.00
5578;DHT22;2811;51.900;10.734;2022-07-23T12:15:35;25.20;94.50
5578;DHT22;2811;51.900;10.734;2022-07-23T12:18:04;25.10;94.60
5578;DHT22;2811;51.900;10.734;2022-07-23T12:20:33;25.10;94.50
5578;DHT22;2811;51.900;10.734;2022-07-23T12:23:02;25.20;94.80
5578;DHT22;2811;51.900;10.734;2022-07-23T12:25:30;25.40;94.80
5578;DHT22;2811;51.900;10.734;2022-07-23T12:27:59;25.70;93.80
5578;DHT22;2811;51.900;10.734;2022-07-23T12:30:29;25.80;92.80
5578;DHT22;2811;51.900;10.734;2022-07-23T12:32:58;25.80;92.80
5578;DHT22;2811;51.900;10.734;2022-07-23T12:35:32;25.50;93.10
5578;DHT22;2811;51.900;10.734;2022-07-23T12:38:01;25.50;92.50
5578;DHT22;2811;51.900;10.734;2022-07-23T12:40:31;25.50;93.50
5578;DHT22;2811;51.900;10.734;2022-07-23T12:42:59;25.70;93.20
5578;DHT22;2811;51.900;10.734;2022-07-23T12:45:27;25.60;93.10
5578;DHT22;2811;51.900;10.734;2022-07-23T12:48:05;25.50;93.10
5578;DHT22;2811;51.900;10.734;2022-07-23T12:50:43;25.30;93.30
5578;DHT22;2811;51.900;10.734;2022-07-23T12:53:12;25.50;93.40
5578;DHT22;2811;51.900;10.734;2022-07-23T12:55:41;25.70;93.30
5578;DHT22;2811;51.900;10.734;2022-07-23T12:58:11;25.50;93.20
5578;DHT22;2811;51.900;10.734;2022-07-23T13:01:07;25.30;93.30
5578;DHT22;2811;51.900;10.734;2022-07-23T13:03:38;25.30;94.10
5578;DHT22;2811;51.900;10.734;2022-07-23T13:06:08;25.60;93.20
5578;DHT22;2811;51.900;10.734;2022-07-23T13:08:37;25.80;93.00
5578;DHT22;2811;51.900;10.734;2022-07-23T13:11:05;25.80;93.10
5578;DHT22;2811;51.900;10.734;2022-07-23T13:13:34;26.00;92.50
5578;DHT22;2811;51.900;10.734;2022-07-23T13:16:01;25.90;92.60
5578;DHT22;2811;51.900;10.734;2022-07-23T13:18:29;25.80;92.90
5578;DHT22;2811;51.900;10.734;2022-07-23T13:20:57;25.90;92.40
5578;DHT22;2811;51.900;10.734;2022-07-23T13:23:24;25.70;92.60
5578;DHT22;2811;51.900;10.734;2022-07-23T13:25:51;25.50;92.50
5578;DHT22;2811;51.900;10.734;2022-07-23T13:28:19;25.40;93.20
5578;DHT22;2811;51.900;10.734;2022-07-23T13:30:47;25.50;93.00
5578;DHT22;2811;51.900;10.734;2022-07-23T13:33:15;25.70;92.80
5578;DHT22;2811;51.900;10.734;2022-07-23T13:35:42;25.70;92.30
5578;DHT22;2811;51.900;10.734;2022-07-23T13:38:10;25.70;92.30
5578;DHT22;2811;51.900;10.734;2022-07-23T13:40:39;25.90;92.20
5578;DHT22;2811;51.900;10.734;2022-07-23T13:43:08;26.00;92.20
5578;DHT22;2811;51.900;10.734;2022-07-23T13:45:35;26.20;91.60
5578;DHT22;2811;51.900;10.734;2022-07-23T13:48:02;26.10;91.40
5578;DHT22;2811;51.900;10.734;2022-07-23T13:50:29;26.00;91.10
5578;DHT22;2811;51.900;10.734;2022-07-23T13:52:55;25.80;91.50
5578;DHT22;2811;51.900;10.734;2022-07-23T13:55:23;25.60;91.60
5578;DHT22;2811;51.900;10.734;2022-07-23T13:57:50;25.60;92.00
5578;DHT22;2811;51.900;10.734;2022-07-23T14:00:17;25.70;91.90
5578;DHT22;2811;51.900;10.734;2022-07-23T14:02:43;25.90;91.60
5578;DHT22;2811;51.900;10.734;2022-07-23T14:05:11;26.00;91.60
5578;DHT22;2811;51.900;10.734;2022-07-23T14:07:38;26.20;91.60
5578;DHT22;2811;51.900;10.734;2022-07-23T14:10:07;26.40;90.90
5578;DHT22;2811;51.900;10.734;2022-07-23T14:12:35;26.30;91.00
5578;DHT22;2811;51.900;10.734;2022-07-23T14:15:03;26.30;91.50
5578;DHT22;2811;51.900;10.734;2022-07-23T14:17:30;26.30;91.40
5578;DHT22;2811;51.900;10.734;2022-07-23T14:19:58;26.50;91.00
5578;DHT22;2811;51.900;10.734;2022-07-23T14:22:25;26.50;90.60
5578;DHT22;2811;51.900;10.734;2022-07-23T14:24:51;26.30;91.30
5578;DHT22;2811;51.900;10.734;2022-07-23T14:27:18;26.20;91.00
5578;DHT22;2811;51.900;10.734;2022-07-23T14:29:46;26.10;91.30
5578;DHT22;2811;51.900;10.734;2022-07-23T14:32:13;25.90;91.50
5578;DHT22;2811;51.900;10.734;2022-07-23T14:34:39;25.80;91.70
5578;DHT22;2811;51.900;10.734;2022-07-23T14:37:06;26.20;91.70
5578;DHT22;2811;51.900;10.734;2022-07-23T14:39:33;26.20;90.90
5578;DHT22;2811;51.900;10.734;2022-07-23T14:41:59;25.90;91.00
5578;DHT22;2811;51.900;10.734;2022-07-23T14:44:26;25.90;91.30
5578;DHT22;2811;51.900;10.734;2022-07-23T14:46:54;26.10;90.70
5578;DHT22;2811;51.900;10.734;2022-07-23T14:49:20;26.10;91.10
5578;DHT22;2811;51.900;10.734;2022-07-23T14:51:47;26.40;90.70
5578;DHT22;2811;51.900;10.734;2022-07-23T14:54:14;26.60;89.80
5578;DHT22;2811;51.900;10.734;2022-07-23T14:56:41;26.40;89.50
5578;DHT22;2811;51.900;10.734;2022-07-23T14:59:08;26.10;90.20
5578;DHT22;2811;51.900;10.734;2022-07-23T15:01:35;26.30;90.10
5578;DHT22;2811;51.900;10.734;2022-07-23T15:04:03;26.20;90.20
5578;DHT22;2811;51.900;10.734;2022-07-23T15:06:30;26.10;90.80
5578;DHT22;2811;51.900;10.734;2022-07-23T15:08:56;25.80;90.40
5578;DHT22;2811;51.900;10.734;2022-07-23T15:11:23;25.60;91.20
5578;DHT22;2811;51.900;10.734;2022-07-23T15:13:50;25.90;91.20
5578;DHT22;2811;51.900;10.734;2022-07-23T15:16:17;26.00;90.50
5578;DHT22;2811;51.900;10.734;2022-07-23T15:18:43;26.00;90.60
5578;DHT22;2811;51.900;10.734;2022-07-23T15:21:11;25.70;90.40
5578;DHT22;2811;51.900;10.734;2022-07-23T15:23:38;25.60;91.20
5578;DHT22;2811;51.900;10.734;2022-07-23T15:26:05;25.60;91.30
5578;DHT22;2811;51.900;10.734;2022-07-23T15:28:32;25.70;91.20
5578;DHT22;2811;51.900;10.734;2022-07-23T15:30:59;25.70;91.40
5578;DHT22;2811;51.900;10.734;2022-07-23T15:33:26;25.80;91.40
5578;DHT22;2811;51.900;10.734;2022-07-23T15:35:53;26.20;90.50
5578;DHT22;2811;51.900;10.734;2022-07-23T15:38:22;26.20;90.70
5578;DHT22;2811;51.900;10.734;2022-07-23T15:40:48;26.20;90.60
5578;DHT22;2811;51.900;10.734;2022-07-23T15:43:15;26.30;90.70
5578;DHT22;2811;51.900;10.734;2022-07-23T15:45:41;26.50;90.50
5578;DHT22;2811;51.900;10.734;2022-07-23T15:48:08;26.50;89.30
5578;DHT22;2811;51.900;10.734;2022-07-23T15:50:35;26.70;88.80
5578;DHT22;2811;51.900;10.734;2022-07-23T15:53:01;27.00;88.80
5578;DHT22;2811;51.900;10.734;2022-07-23T15:55:29;26.90;88.30
5578;DHT22;2811;51.900;10.734;2022-07-23T15:57:56;27.20;87.80
5578;DHT22;2811;51.900;10.734;2022-07-23T16:00:22;27.20;87.80
5578;DHT22;2811;51.900;10.734;2022-07-23T16:02:49;27.50;86.90
5578;DHT22;2811;51.900;10.734;2022-07-23T16:05:16;27.80;86.10
5578;DHT22;2811;51.900;10.734;2022-07-23T16:07:42;28.50;85.10
5578;DHT22;2811;51.900;10.734;2022-07-23T16:10:09;28.60;83.30
5578;DHT22;2811;51.900;10.734;2022-07-23T16:12:37;27.80;84.00
5578;DHT22;2811;51.900;10.734;2022-07-23T16:15:04;27.20;85.30